createdAt,value
2019-06-11T00:00:15.162Z,99.99
2019-06-11T00:01:08.245Z,99.99
2019-06-11T00:02:23.707Z,99.99
2019-06-11T00:03:06.422Z,99.99
2019-06-11T00:04:06.419Z,99.99
2019-06-11T00:05:06.421Z,99.99
2019-06-11T00:06:06.355Z,99.99
2019-06-11T00:07:06.424Z,99.99
2019-06-11T00:08:06.413Z,99.99
2019-06-11T00:09:06.416Z,99.99
2019-06-11T00:10:07.726Z,99.99
2019-06-11T00:11:08.990Z,99.99
2019-06-11T00:12:07.086Z,99.99
2019-06-11T00:13:06.343Z,99.99
2019-06-11T00:14:06.428Z,99.99
2019-06-11T00:15:06.349Z,99.99
2019-06-11T00:16:06.660Z,99.99
2019-06-11T00:17:06.367Z,99.99
2019-06-11T00:18:06.426Z,99.99
2019-06-11T00:19:06.372Z,99.99
2019-06-11T00:20:06.774Z,99.99
2019-06-11T00:21:06.937Z,99.99
2019-06-11T00:22:06.989Z,99.99
2019-06-11T00:23:06.438Z,99.99
2019-06-11T00:24:06.705Z,99.99
2019-06-11T00:25:06.953Z,99.99
2019-06-11T00:26:06.949Z,99.99
2019-06-11T00:27:07.999Z,99.99
2019-06-11T00:28:06.781Z,99.99
2019-06-11T00:29:08.110Z,99.99
2019-06-11T00:30:15.871Z,99.99
2019-06-11T00:31:08.505Z,99.99
2019-06-11T00:32:15.723Z,99.99
2019-06-11T00:33:07.099Z,99.99
2019-06-11T00:34:07.693Z,99.99
2019-06-11T00:35:07.622Z,99.99
2019-06-11T00:36:07.625Z,99.99
2019-06-11T00:37:07.303Z,99.99
2019-06-11T00:38:08.056Z,99.99
2019-06-11T00:39:07.565Z,99.99
2019-06-11T00:40:08.069Z,99.99
2019-06-11T00:41:08.346Z,99.99
2019-06-11T00:42:07.613Z,99.99
2019-06-11T00:43:07.919Z,99.99
2019-06-11T00:44:08.595Z,99.99
2019-06-11T00:45:08.449Z,99.99
2019-06-11T00:46:08.510Z,99.99
2019-06-11T00:47:08.642Z,99.99
2019-06-11T00:48:08.396Z,99.99
2019-06-11T00:49:08.433Z,99.99
2019-06-11T00:50:07.816Z,99.99
2019-06-11T00:51:08.916Z,99.99
2019-06-11T00:52:07.840Z,99.99
2019-06-11T00:53:06.998Z,99.99
2019-06-11T00:54:07.612Z,99.99
2019-06-11T00:55:07.726Z,99.99
2019-06-11T00:56:08.165Z,99.99
2019-06-11T00:57:07.754Z,99.99
2019-06-11T00:58:08.364Z,99.99
2019-06-11T00:59:07.678Z,99.99
2019-06-11T01:00:16.672Z,99.99
2019-06-11T01:01:07.606Z,99.99
2019-06-11T01:02:10.246Z,99.99
2019-06-11T01:03:07.670Z,99.99
2019-06-11T01:04:07.867Z,99.99
2019-06-11T01:05:08.835Z,99.99
2019-06-11T01:06:08.007Z,99.99
2019-06-11T01:07:07.859Z,99.99
2019-06-11T01:08:08.012Z,99.99
2019-06-11T01:09:08.510Z,99.99
2019-06-11T01:10:07.294Z,99.99
2019-06-11T01:11:09.178Z,99.99
2019-06-11T01:12:09.789Z,99.99
2019-06-11T01:13:07.588Z,99.99
2019-06-11T01:14:09.090Z,99.99
2019-06-11T01:15:09.265Z,99.99
2019-06-11T01:16:09.801Z,99.99
2019-06-11T01:17:08.004Z,99.99
2019-06-11T01:18:08.389Z,99.99
2019-06-11T01:19:08.219Z,99.99
2019-06-11T01:20:08.128Z,99.99
2019-06-11T01:21:09.696Z,99.99
2019-06-11T01:22:07.955Z,99.99
2019-06-11T01:23:07.346Z,99.99
2019-06-11T01:24:07.920Z,99.99
2019-06-11T01:25:08.336Z,99.99
2019-06-11T01:26:08.559Z,99.99
2019-06-11T01:27:07.196Z,99.99
2019-06-11T01:28:08.477Z,99.99
2019-06-11T01:29:07.220Z,99.99
2019-06-11T01:30:07.947Z,99.99
2019-06-11T01:31:08.841Z,99.99
2019-06-11T01:32:07.897Z,99.99
2019-06-11T01:33:11.483Z,99.99
2019-06-11T01:34:08.892Z,99.99
2019-06-11T01:35:07.936Z,99.99
2019-06-11T01:36:09.657Z,99.99
2019-06-11T01:37:09.015Z,99.99
2019-06-11T01:38:06.902Z,99.99
2019-06-11T01:39:07.812Z,99.99
2019-06-11T01:40:09.483Z,99.99
2019-06-11T01:41:06.932Z,99.99
2019-06-11T01:42:06.801Z,99.99
2019-06-11T01:43:07.712Z,99.99
2019-06-11T01:44:07.849Z,99.99
2019-06-11T01:45:07.608Z,99.99
2019-06-11T01:46:06.831Z,99.99
2019-06-11T01:47:07.663Z,99.99
2019-06-11T01:48:07.552Z,99.99
2019-06-11T01:49:07.746Z,99.99
2019-06-11T01:50:08.159Z,99.99
2019-06-11T01:51:07.570Z,99.99
2019-06-11T01:52:06.862Z,99.99
2019-06-11T01:53:07.577Z,99.99
2019-06-11T01:54:07.123Z,99.99
2019-06-11T01:55:06.390Z,99.99
2019-06-11T01:56:07.754Z,99.99
2019-06-11T01:57:06.485Z,99.99
2019-06-11T01:58:06.512Z,99.99
2019-06-11T01:59:07.422Z,99.99
2019-06-11T02:00:17.708Z,99.99
2019-06-11T02:01:09.028Z,99.99
2019-06-11T02:02:07.631Z,99.99
2019-06-11T02:03:27.384Z,99.99
2019-06-11T02:04:08.063Z,99.99
2019-06-11T02:05:07.309Z,99.99
2019-06-11T02:06:07.159Z,99.99
2019-06-11T02:07:07.800Z,99.99
2019-06-11T02:08:07.721Z,99.99
2019-06-11T02:09:07.430Z,99.99
2019-06-11T02:10:07.659Z,99.99
2019-06-11T02:11:06.413Z,99.99
2019-06-11T02:12:06.522Z,99.99
2019-06-11T02:13:07.843Z,99.99
2019-06-11T02:14:06.511Z,99.99
2019-06-11T02:15:07.810Z,99.99
2019-06-11T02:16:08.425Z,99.99
2019-06-11T02:17:06.857Z,99.99
2019-06-11T02:18:06.369Z,99.99
2019-06-11T02:19:06.508Z,99.99
2019-06-11T02:20:06.457Z,99.99
2019-06-11T02:21:06.617Z,99.99
2019-06-11T02:22:06.592Z,99.99
2019-06-11T02:23:06.663Z,99.99
2019-06-11T02:24:06.764Z,99.99
2019-06-11T02:25:06.939Z,99.99
2019-06-11T02:26:07.200Z,99.99
2019-06-11T02:27:07.003Z,99.99
2019-06-11T02:28:06.961Z,99.99
2019-06-11T02:29:07.166Z,99.99
2019-06-11T02:30:20.235Z,99.99
2019-06-11T02:31:11.345Z,99.99
2019-06-11T02:32:08.843Z,99.99
2019-06-11T02:33:08.335Z,99.99
2019-06-11T02:34:49.417Z,99.99
2019-06-11T02:35:21.095Z,99.99
2019-06-11T02:36:09.940Z,99.99
2019-06-11T02:37:07.027Z,99.99
2019-06-11T02:39:06.883Z,99.99
2019-06-11T02:40:07.059Z,99.99
2019-06-11T02:41:07.244Z,99.99
2019-06-11T02:42:06.891Z,99.99
2019-06-11T02:43:06.929Z,99.99
2019-06-11T02:44:07.527Z,99.99
2019-06-11T02:45:07.603Z,99.99
2019-06-11T02:46:07.680Z,99.99
2019-06-11T02:47:07.770Z,99.99
2019-06-11T02:48:07.873Z,99.99
2019-06-11T02:49:07.526Z,99.99
2019-06-11T02:50:08.328Z,99.99
2019-06-11T02:51:08.181Z,99.99
2019-06-11T02:52:08.128Z,99.99
2019-06-11T02:53:08.694Z,99.99
2019-06-11T02:54:08.351Z,99.99
2019-06-11T02:55:08.322Z,99.99
2019-06-11T02:56:08.264Z,99.99
2019-06-11T02:57:08.680Z,99.99
2019-06-11T02:58:06.479Z,99.99
2019-06-11T02:59:06.484Z,99.99
2019-06-11T03:00:20.996Z,99.99
2019-06-11T03:01:06.481Z,99.99
2019-06-11T03:02:06.480Z,99.99
2019-06-11T03:03:06.547Z,99.99
2019-06-11T03:04:23.843Z,99.99
2019-06-11T03:05:12.935Z,99.99
2019-06-11T03:06:06.482Z,99.99
2019-06-11T03:07:06.479Z,99.99
2019-06-11T03:08:06.488Z,99.99
2019-06-11T03:09:06.561Z,99.99
2019-06-11T03:10:06.495Z,99.99
2019-06-11T03:11:06.655Z,99.99
2019-06-11T03:12:06.561Z,99.99
2019-06-11T03:13:06.574Z,99.99
2019-06-11T03:14:06.494Z,99.99
2019-06-11T03:15:06.565Z,99.99
2019-06-11T03:16:10.448Z,99.99
2019-06-11T03:17:06.633Z,99.99
2019-06-11T03:18:06.570Z,99.99
2019-06-11T03:19:06.575Z,99.99
2019-06-11T03:20:06.592Z,99.99
2019-06-11T03:21:06.587Z,99.99
2019-06-11T03:22:06.578Z,99.99
2019-06-11T03:23:06.581Z,99.99
2019-06-11T03:24:06.520Z,99.99
2019-06-11T03:25:06.581Z,99.99
2019-06-11T03:26:06.577Z,99.99
2019-06-11T03:27:06.597Z,99.99
2019-06-11T03:28:06.594Z,99.99
2019-06-11T03:29:06.543Z,99.99
2019-06-11T03:30:27.440Z,99.99
2019-06-11T03:31:35.691Z,99.99
2019-06-11T03:36:22.387Z,99.99
2019-06-11T03:36:39.057Z,99.99
2019-06-11T03:37:56.433Z,99.99
2019-06-11T03:38:31.996Z,99.99
2019-06-11T03:39:18.374Z,99.99
2019-06-11T03:40:07.065Z,99.99
2019-06-11T03:41:06.526Z,99.99
2019-06-11T03:42:06.516Z,99.99
2019-06-11T03:43:06.579Z,99.99
2019-06-11T03:44:06.514Z,99.99
2019-06-11T03:45:06.584Z,99.99
2019-06-11T03:46:06.504Z,99.99
2019-06-11T03:47:06.510Z,99.99
2019-06-11T03:48:06.533Z,99.99
2019-06-11T03:49:06.555Z,99.99
2019-06-11T03:50:06.501Z,99.99
2019-06-11T03:51:06.532Z,99.99
2019-06-11T03:52:06.650Z,99.99
2019-06-11T03:53:06.551Z,99.99
2019-06-11T03:54:06.609Z,99.99
2019-06-11T03:55:06.610Z,99.99
2019-06-11T03:56:06.536Z,99.99
2019-06-11T03:57:06.551Z,99.99
2019-06-11T03:58:06.585Z,99.99
2019-06-11T03:59:06.588Z,99.99
2019-06-11T04:00:18.729Z,99.99
2019-06-11T04:01:06.518Z,99.99
2019-06-11T04:02:06.505Z,99.99
2019-06-11T04:03:06.498Z,99.99
2019-06-11T04:04:06.478Z,99.99
2019-06-11T04:05:06.591Z,99.99
2019-06-11T04:06:06.579Z,99.99
2019-06-11T04:07:17.146Z,99.99
2019-06-11T04:08:06.542Z,99.99
2019-06-11T04:09:06.601Z,99.99
2019-06-11T04:10:06.547Z,99.99
2019-06-11T04:11:06.530Z,99.99
2019-06-11T04:12:06.606Z,99.99
2019-06-11T04:13:06.537Z,99.99
2019-06-11T04:14:06.533Z,99.99
2019-06-11T04:15:06.534Z,99.99
2019-06-11T04:16:06.615Z,99.99
2019-06-11T04:17:17.675Z,99.99
2019-06-11T04:18:06.610Z,99.99
2019-06-11T04:19:06.627Z,99.99
2019-06-11T04:20:06.632Z,99.99
2019-06-11T04:21:06.638Z,99.99
2019-06-11T04:22:06.655Z,99.99
2019-06-11T04:23:08.663Z,99.99
2019-06-11T04:25:06.577Z,99.99
2019-06-11T04:26:06.566Z,99.99
2019-06-11T04:27:06.635Z,99.99
2019-06-11T04:28:06.623Z,99.99
2019-06-11T04:29:06.611Z,99.99
2019-06-11T04:30:13.459Z,99.99
2019-06-11T04:31:06.626Z,99.99
2019-06-11T04:32:06.574Z,99.99
2019-06-11T04:33:06.550Z,99.99
2019-06-11T04:34:06.550Z,99.99
2019-06-11T04:35:06.558Z,99.99
2019-06-11T04:36:06.616Z,99.99
2019-06-11T04:37:25.467Z,99.99
2019-06-11T04:38:12.955Z,99.99
2019-06-11T04:39:06.593Z,99.99
2019-06-11T04:40:06.649Z,99.99
2019-06-11T04:41:06.637Z,99.99
2019-06-11T04:42:06.647Z,99.99
2019-06-11T04:43:06.661Z,99.99
2019-06-11T04:44:06.640Z,99.99
2019-06-11T04:45:06.643Z,99.99
2019-06-11T04:46:06.640Z,99.99
2019-06-11T04:47:06.642Z,99.99
2019-06-11T04:48:06.570Z,99.99
2019-06-11T04:49:06.603Z,99.99
2019-06-11T04:50:06.606Z,99.99
2019-06-11T04:51:06.650Z,99.99
2019-06-11T04:52:06.609Z,99.99
2019-06-11T04:53:06.665Z,99.99
2019-06-11T04:54:06.653Z,99.99
2019-06-11T04:55:08.379Z,99.99
2019-06-11T04:56:06.589Z,99.99
2019-06-11T04:57:06.655Z,99.99
2019-06-11T04:58:06.672Z,99.99
2019-06-11T04:59:06.577Z,99.99
2019-06-11T05:00:15.982Z,99.99
2019-06-11T05:04:22.446Z,99.99
2019-06-11T05:05:10.812Z,99.99
2019-06-11T05:06:06.661Z,99.99
2019-06-11T05:07:25.486Z,99.99
2019-06-11T05:08:10.533Z,99.99
2019-06-11T05:09:06.581Z,99.99
2019-06-11T05:10:06.602Z,99.99
2019-06-11T05:11:06.660Z,99.99
2019-06-11T05:12:06.671Z,99.99
2019-06-11T05:13:06.720Z,99.99
2019-06-11T05:14:17.647Z,99.99
2019-06-11T05:15:06.585Z,99.99
2019-06-11T05:16:06.668Z,99.99
2019-06-11T05:17:06.603Z,99.99
2019-06-11T05:18:09.581Z,99.99
2019-06-11T05:19:06.660Z,99.99
2019-06-11T05:20:06.717Z,99.99
2019-06-11T05:21:06.673Z,99.99
2019-06-11T05:22:06.605Z,99.99
2019-06-11T05:23:06.674Z,99.99
2019-06-11T05:24:06.601Z,99.99
2019-06-11T05:25:06.662Z,99.99
2019-06-11T05:26:13.495Z,99.99
2019-06-11T05:27:06.553Z,99.99
2019-06-11T05:28:06.666Z,99.99
2019-06-11T05:29:06.595Z,99.99
2019-06-11T05:30:14.162Z,99.99
2019-06-11T05:31:06.597Z,99.99
2019-06-11T05:32:06.725Z,99.99
2019-06-11T05:33:06.700Z,99.99
2019-06-11T05:34:06.650Z,99.99
2019-06-11T05:35:06.566Z,99.99
2019-06-11T05:36:06.711Z,99.99
2019-06-11T05:37:06.607Z,99.99
2019-06-11T05:38:16.040Z,99.99
2019-06-11T05:39:06.567Z,99.99
2019-06-11T05:40:06.678Z,99.99
2019-06-11T05:41:06.627Z,99.99
2019-06-11T05:42:06.577Z,99.99
2019-06-11T05:43:06.690Z,99.99
2019-06-11T05:44:06.687Z,99.99
2019-06-11T05:45:07.275Z,99.99
2019-06-11T05:46:06.629Z,99.99
2019-06-11T05:47:06.677Z,99.99
2019-06-11T05:48:06.615Z,99.99
2019-06-11T05:49:06.674Z,99.99
2019-06-11T05:50:06.605Z,99.99
2019-06-11T05:51:06.612Z,99.99
2019-06-11T05:52:06.674Z,99.99
2019-06-11T05:53:06.605Z,99.99
2019-06-11T05:54:06.673Z,99.99
2019-06-11T05:55:06.609Z,99.99
2019-06-11T05:56:06.677Z,99.99
2019-06-11T05:57:06.617Z,99.99
2019-06-11T05:58:06.611Z,99.99
2019-06-11T05:59:06.589Z,99.99
2019-06-11T06:00:06.722Z,99.99
2019-06-11T06:01:13.153Z,99.99
2019-06-11T06:02:07.051Z,99.99
2019-06-11T06:03:06.689Z,99.99
2019-06-11T06:04:06.697Z,99.99
2019-06-11T06:05:06.620Z,99.99
2019-06-11T06:06:06.695Z,99.99
2019-06-11T06:07:06.639Z,99.99
2019-06-11T06:09:06.846Z,99.99
2019-06-11T06:10:06.614Z,99.99
2019-06-11T06:11:06.574Z,99.99
2019-06-11T06:12:06.625Z,99.99
2019-06-11T06:13:06.687Z,99.99
2019-06-11T06:14:06.629Z,99.99
2019-06-11T06:15:06.692Z,99.99
2019-06-11T06:16:06.641Z,99.99
2019-06-11T06:17:06.694Z,99.99
2019-06-11T06:18:06.625Z,99.99
2019-06-11T06:19:06.707Z,99.99
2019-06-11T06:20:06.755Z,99.99
2019-06-11T06:21:06.638Z,99.99
2019-06-11T06:22:06.634Z,99.99
2019-06-11T06:23:06.710Z,99.99
2019-06-11T06:24:20.497Z,99.99
2019-06-11T06:25:06.666Z,99.99
2019-06-11T06:26:06.722Z,99.99
2019-06-11T06:27:06.607Z,99.99
2019-06-11T06:28:06.680Z,99.99
2019-06-11T06:29:06.633Z,99.99
2019-06-11T06:30:11.928Z,99.99
2019-06-11T06:31:06.629Z,99.99
2019-06-11T06:32:06.701Z,99.99
2019-06-11T06:33:06.753Z,99.99
2019-06-11T06:34:06.629Z,99.99
2019-06-11T06:35:06.704Z,99.99
2019-06-11T06:36:06.635Z,99.99
2019-06-11T06:37:06.705Z,99.99
2019-06-11T06:38:06.629Z,99.99
2019-06-11T06:39:06.717Z,99.99
2019-06-11T06:40:06.650Z,99.99
2019-06-11T06:41:06.722Z,99.99
2019-06-11T06:42:06.655Z,99.99
2019-06-11T06:43:06.655Z,99.99
2019-06-11T06:44:06.707Z,99.99
2019-06-11T06:45:06.718Z,99.99
2019-06-11T06:46:06.723Z,99.99
2019-06-11T06:47:06.653Z,99.99
2019-06-11T06:48:06.660Z,99.99
2019-06-11T06:49:06.716Z,99.99
2019-06-11T06:50:06.665Z,99.99
2019-06-11T06:51:06.641Z,99.99
2019-06-11T06:52:06.727Z,99.99
2019-06-11T06:53:06.729Z,99.99
2019-06-11T06:54:06.715Z,99.99
2019-06-11T06:55:06.722Z,99.99
2019-06-11T06:56:06.719Z,99.99
2019-06-11T06:57:06.645Z,99.99
2019-06-11T06:58:06.602Z,99.99
2019-06-11T06:59:06.739Z,99.99
2019-06-11T07:00:10.240Z,99.99
2019-06-11T07:01:06.664Z,99.99
2019-06-11T07:02:06.732Z,99.99
2019-06-11T07:03:06.665Z,99.99
2019-06-11T07:04:06.664Z,99.99
2019-06-11T07:05:06.686Z,99.99
2019-06-11T07:06:06.700Z,99.99
2019-06-11T07:07:06.747Z,99.99
2019-06-11T07:08:06.666Z,99.99
2019-06-11T07:09:09.250Z,99.99
2019-06-11T07:10:06.672Z,99.99
2019-06-11T07:11:06.678Z,99.99
2019-06-11T07:12:06.679Z,99.99
2019-06-11T07:13:06.687Z,99.99
2019-06-11T07:14:06.743Z,99.99
2019-06-11T07:15:06.674Z,99.99
2019-06-11T07:16:06.777Z,99.99
2019-06-11T07:17:07.642Z,99.99
2019-06-11T07:18:06.755Z,99.99
2019-06-11T07:19:06.668Z,99.99
2019-06-11T07:20:06.731Z,99.99
2019-06-11T07:21:06.667Z,99.99
2019-06-11T07:22:06.683Z,99.99
2019-06-11T07:23:06.665Z,99.99
2019-06-11T07:24:08.447Z,99.99
2019-06-11T07:25:06.748Z,99.99
2019-06-11T07:26:06.650Z,99.99
2019-06-11T07:27:06.737Z,99.99
2019-06-11T07:28:06.746Z,99.99
2019-06-11T07:29:06.611Z,99.99
2019-06-11T07:30:06.807Z,99.99
2019-06-11T07:31:06.655Z,99.99
2019-06-11T07:32:06.744Z,99.99
2019-06-11T07:33:07.947Z,99.99
2019-06-11T07:34:06.635Z,99.99
2019-06-11T07:35:06.674Z,99.99
2019-06-11T07:36:07.830Z,99.99
2019-06-11T07:37:06.617Z,99.99
2019-06-11T07:38:06.659Z,99.99
2019-06-11T07:39:19.584Z,99.99
2019-06-11T07:40:06.774Z,99.99
2019-06-11T07:41:06.697Z,99.99
2019-06-11T07:42:06.692Z,99.99
2019-06-11T07:43:06.765Z,99.99
2019-06-11T07:44:06.769Z,99.99
2019-06-11T07:45:06.703Z,99.99
2019-06-11T07:46:28.633Z,99.99
2019-06-11T07:47:07.045Z,99.99
2019-06-11T07:48:06.777Z,99.99
2019-06-11T07:49:06.766Z,99.99
2019-06-11T07:50:06.641Z,99.99
2019-06-11T07:51:06.761Z,99.99
2019-06-11T07:52:06.757Z,99.99
2019-06-11T07:53:06.661Z,99.99
2019-06-11T07:54:06.678Z,99.99
2019-06-11T07:55:06.688Z,99.99
2019-06-11T07:56:06.705Z,99.99
2019-06-11T07:57:10.942Z,99.99
2019-06-11T07:58:06.766Z,99.99
2019-06-11T07:59:06.769Z,99.99
2019-06-11T08:00:06.677Z,99.99
2019-06-11T08:01:06.792Z,99.99
2019-06-11T08:02:06.708Z,99.99
2019-06-11T08:03:06.771Z,99.99
2019-06-11T08:04:06.670Z,99.99
2019-06-11T08:05:06.831Z,99.99
2019-06-11T08:06:06.684Z,99.99
2019-06-11T08:07:06.773Z,99.99
2019-06-11T08:08:06.761Z,99.99
2019-06-11T08:09:06.701Z,99.99
2019-06-11T08:10:27.293Z,99.99
2019-06-11T08:11:06.945Z,99.64
2019-06-11T08:12:06.787Z,99.29
2019-06-11T08:13:07.017Z,99.15
2019-06-11T08:14:14.666Z,99.15
2019-06-11T08:15:06.781Z,99.21
2019-06-11T08:16:11.878Z,99.43
2019-06-11T08:17:06.720Z,99.86
2019-06-11T08:18:06.705Z,99.86
2019-06-11T08:20:32.550Z,99.48
2019-06-11T08:21:29.957Z,99.51
2019-06-11T08:22:23.006Z,99.29
2019-06-11T08:23:10.493Z,98.94
2019-06-11T08:24:01.805Z,99.70
2019-06-11T08:24:19.871Z,98.34
2019-06-11T08:25:12.516Z,98.26
2019-06-11T08:27:27.229Z,97.80
2019-06-11T08:27:29.718Z,97.83
2019-06-11T08:28:12.733Z,97.83
2019-06-11T08:29:06.739Z,97.47
2019-06-11T08:30:06.798Z,97.69
2019-06-11T08:31:06.739Z,97.99
2019-06-11T08:32:06.738Z,98.34
2019-06-11T08:33:06.732Z,98.66
2019-06-11T08:34:07.397Z,98.04
2019-06-11T08:35:06.799Z,97.69
2019-06-11T08:36:06.738Z,97.50
2019-06-11T08:37:06.736Z,97.34
2019-06-11T08:38:06.735Z,97.34
2019-06-11T08:39:06.806Z,97.36
2019-06-11T08:40:15.680Z,97.69
2019-06-11T08:41:06.723Z,97.53
2019-06-11T08:42:06.800Z,97.85
2019-06-11T08:43:06.681Z,98.04
2019-06-11T08:44:06.728Z,98.34
2019-06-11T08:45:18.650Z,98.29
2019-06-11T08:46:06.799Z,98.23
2019-06-11T08:47:06.768Z,98.21
2019-06-11T08:48:06.804Z,98.18
2019-06-11T08:49:06.701Z,98.40
2019-06-11T08:50:06.734Z,98.40
2019-06-11T08:51:06.732Z,98.59
2019-06-11T08:52:06.731Z,98.15
2019-06-11T08:53:06.804Z,98.26
2019-06-11T08:54:06.814Z,98.21
2019-06-11T08:55:06.764Z,98.04
2019-06-11T08:56:06.814Z,97.91
2019-06-11T08:57:06.780Z,98.04
2019-06-11T08:58:06.809Z,98.26
2019-06-11T08:59:06.690Z,98.34
2019-06-11T09:00:29.377Z,98.66
2019-06-11T09:01:09.218Z,98.18
2019-06-11T09:02:06.803Z,98.48
2019-06-11T09:03:06.783Z,98.66
2019-06-11T09:04:06.807Z,98.50
2019-06-11T09:05:06.707Z,98.12
2019-06-11T09:06:10.331Z,97.80
2019-06-11T09:07:06.802Z,97.66
2019-06-11T09:08:06.806Z,97.69
2019-06-11T09:09:06.718Z,97.55
2019-06-11T09:10:06.733Z,97.83
2019-06-11T09:11:06.783Z,97.93
2019-06-11T09:12:06.818Z,98.04
2019-06-11T09:13:06.706Z,97.99
2019-06-11T09:14:06.703Z,97.61
2019-06-11T09:15:06.709Z,97.99
2019-06-11T09:16:06.797Z,98.04
2019-06-11T09:17:06.727Z,98.45
2019-06-11T09:18:06.730Z,98.55
2019-06-11T09:19:06.758Z,98.29
2019-06-11T09:20:06.753Z,98.40
2019-06-11T09:21:06.832Z,98.59
2019-06-11T09:22:06.758Z,98.23
2019-06-11T09:23:06.834Z,98.26
2019-06-11T09:24:06.769Z,97.74
2019-06-11T09:25:06.767Z,97.15
2019-06-11T09:26:06.836Z,96.66
2019-06-11T09:27:06.777Z,96.42
2019-06-11T09:28:06.837Z,95.88
2019-06-11T09:29:06.783Z,96.02
2019-06-11T09:30:10.799Z,95.50
2019-06-11T09:31:06.788Z,95.20
2019-06-11T09:32:06.850Z,95.50
2019-06-11T09:33:06.755Z,95.42
2019-06-11T09:34:06.853Z,95.18
2019-06-11T09:35:06.859Z,95.20
2019-06-11T09:36:06.852Z,94.21
2019-06-11T09:37:06.859Z,93.99
2019-06-11T09:38:06.785Z,93.29
2019-06-11T09:39:06.782Z,92.57
2019-06-11T09:40:06.857Z,92.01
2019-06-11T09:41:06.853Z,92.05
2019-06-11T09:42:06.799Z,91.65
2019-06-11T09:43:06.789Z,90.98
2019-06-11T09:44:06.789Z,90.88
2019-06-11T09:45:06.858Z,91.07
2019-06-11T09:46:06.858Z,90.23
2019-06-11T09:47:06.815Z,90.07
2019-06-11T09:48:07.601Z,89.75
2019-06-11T09:49:06.813Z,89.16
2019-06-11T09:50:06.740Z,87.85
2019-06-11T09:51:06.733Z,87.88
2019-06-11T09:52:06.739Z,88.07
2019-06-11T09:53:06.702Z,87.88
2019-06-11T09:54:06.793Z,88.41
2019-06-11T09:55:06.705Z,88.28
2019-06-11T09:56:06.756Z,89.45
2019-06-11T09:57:06.743Z,88.97
2019-06-11T09:58:06.711Z,88.41
2019-06-11T09:59:06.754Z,87.45
2019-06-11T10:00:06.858Z,85.43
2019-06-11T10:01:06.875Z,84.05
2019-06-11T10:02:06.826Z,81.76
2019-06-11T10:03:06.805Z,81.98
2019-06-11T10:04:06.818Z,81.26
2019-06-11T10:05:06.807Z,79.52
2019-06-11T10:06:06.884Z,80.21
2019-06-11T10:07:06.802Z,79.07
2019-06-11T10:08:06.804Z,79.49
2019-06-11T10:09:06.808Z,80.47
2019-06-11T10:10:06.885Z,78.59
2019-06-11T10:11:36.908Z,77.51
2019-06-11T10:12:06.848Z,76.54
2019-06-11T10:13:06.885Z,75.99
2019-06-11T10:14:06.882Z,76.54
2019-06-11T10:15:06.877Z,78.62
2019-06-11T10:16:06.811Z,76.10
2019-06-11T10:17:06.878Z,76.31
2019-06-11T10:18:06.947Z,78.17
2019-06-11T10:19:06.888Z,78.94
2019-06-11T10:20:06.887Z,79.83
2019-06-11T10:21:06.816Z,80.26
2019-06-11T10:22:06.813Z,78.01
2019-06-11T10:23:06.885Z,78.12
2019-06-11T10:24:06.818Z,78.54
2019-06-11T10:25:06.824Z,77.44
2019-06-11T10:26:06.845Z,78.47
2019-06-11T10:27:06.890Z,78.73
2019-06-11T10:28:21.256Z,79.63
2019-06-11T10:29:06.887Z,80.97
2019-06-11T10:30:06.826Z,81.98
2019-06-11T10:31:06.893Z,82.77
2019-06-11T10:32:06.822Z,83.46
2019-06-11T10:33:06.897Z,82.16
2019-06-11T10:34:06.914Z,81.18
2019-06-11T10:35:06.900Z,82.08
2019-06-11T10:36:06.824Z,82.64
2019-06-11T10:37:06.860Z,85.16
2019-06-11T10:38:06.903Z,84.92
2019-06-11T10:39:07.000Z,84.12
2019-06-11T10:40:06.856Z,83.97
2019-06-11T10:41:06.849Z,84.55
2019-06-11T10:42:06.877Z,82.11
2019-06-11T10:43:06.823Z,79.71
2019-06-11T10:44:06.798Z,81.79
2019-06-11T10:45:06.814Z,82.96
2019-06-11T10:46:06.798Z,81.24
2019-06-11T10:47:06.846Z,81.10
2019-06-11T10:48:06.777Z,80.47
2019-06-11T10:49:06.822Z,79.94
2019-06-11T10:50:06.913Z,77.99
2019-06-11T10:51:06.865Z,77.67
2019-06-11T10:52:06.906Z,79.15
2019-06-11T10:53:06.920Z,77.89
2019-06-11T10:54:06.838Z,77.15
2019-06-11T10:55:06.927Z,77.65
2019-06-11T10:56:06.864Z,79.25
2019-06-11T10:57:06.917Z,77.51
2019-06-11T10:58:06.841Z,78.05
2019-06-11T10:59:06.854Z,79.63
2019-06-11T11:00:13.638Z,78.39
2019-06-11T11:01:06.914Z,78.94
2019-06-11T11:02:06.914Z,78.44
2019-06-11T11:03:06.850Z,75.81
2019-06-11T11:04:06.852Z,75.07
2019-06-11T11:05:06.913Z,74.89
2019-06-11T11:06:06.981Z,72.95
2019-06-11T11:07:06.917Z,73.19
2019-06-11T11:08:06.919Z,72.98
2019-06-11T11:09:06.942Z,74.68
2019-06-11T11:10:06.865Z,71.49
2019-06-11T11:11:06.796Z,71.13
2019-06-11T11:12:20.264Z,74.08
2019-06-11T11:13:06.867Z,74.50
2019-06-11T11:14:06.855Z,72.20
2019-06-11T11:15:06.840Z,68.76
2019-06-11T11:16:06.906Z,69.67
2019-06-11T11:17:06.827Z,70.24
2019-06-11T11:18:12.037Z,69.05
2019-06-11T11:19:06.841Z,67.20
2019-06-11T11:20:06.933Z,67.98
2019-06-11T11:21:06.931Z,68.81
2019-06-11T11:22:06.941Z,71.28
2019-06-11T11:23:06.936Z,70.35
2019-06-11T11:24:06.938Z,71.07
2019-06-11T11:25:06.936Z,69.05
2019-06-11T11:26:08.575Z,73.11
2019-06-11T11:27:06.863Z,73.50
2019-06-11T11:28:19.067Z,69.85
2019-06-11T11:29:06.870Z,73.42
2019-06-11T11:30:06.928Z,71.52
2019-06-11T11:31:07.014Z,71.96
2019-06-11T11:32:06.859Z,73.03
2019-06-11T11:33:07.929Z,74.24
2019-06-11T11:34:06.857Z,68.71
2019-06-11T11:35:06.892Z,69.34
2019-06-11T11:36:06.877Z,72.38
2019-06-11T11:37:06.826Z,68.79
2019-06-11T11:38:06.945Z,71.18
2019-06-11T11:39:06.864Z,70.24
2019-06-11T11:40:06.895Z,70.74
2019-06-11T11:41:06.865Z,68.08
2019-06-11T11:42:06.817Z,69.70
2019-06-11T11:43:06.868Z,67.54
2019-06-11T11:44:06.965Z,70.74
2019-06-11T11:45:06.867Z,71.89
2019-06-11T11:46:06.833Z,69.65
2019-06-11T11:47:06.816Z,67.96
2019-06-11T11:48:06.938Z,68.87
2019-06-11T11:49:06.897Z,67.93
2019-06-11T11:50:06.840Z,67.96
2019-06-11T11:51:06.945Z,68.68
2019-06-11T11:52:06.882Z,65.89
2019-06-11T11:53:06.885Z,67.67
2019-06-11T11:54:06.884Z,69.26
2019-06-11T11:55:06.865Z,69.46
2019-06-11T11:56:06.939Z,68.45
2019-06-11T11:57:06.943Z,69.88
2019-06-11T11:58:06.851Z,71.89
2019-06-11T11:59:06.938Z,70.74
2019-06-11T12:00:15.033Z,71.65
2019-06-11T12:01:06.960Z,71.15
2019-06-11T12:02:06.882Z,68.29
2019-06-11T12:03:06.950Z,69.07
2019-06-11T12:04:07.134Z,68.16
2019-06-11T12:05:07.056Z,67.98
2019-06-11T12:06:06.884Z,68.99
2019-06-11T12:07:06.951Z,67.54
2019-06-11T12:08:06.865Z,67.85
2019-06-11T12:09:06.954Z,69.46
2019-06-11T12:10:06.964Z,71.10
2019-06-11T12:11:06.897Z,70.11
2019-06-11T12:12:06.966Z,67.33
2019-06-11T12:13:07.109Z,66.81
2019-06-11T12:14:06.900Z,67.75
2019-06-11T12:15:07.952Z,68.35
2019-06-11T12:16:09.744Z,67.80
2019-06-11T12:17:07.001Z,68.84
2019-06-11T12:18:06.972Z,68.19
2019-06-11T12:19:14.921Z,67.80
2019-06-11T12:20:06.965Z,69.98
2019-06-11T12:21:06.958Z,68.22
2019-06-11T12:22:06.963Z,64.57
2019-06-11T12:23:08.816Z,64.85
2019-06-11T12:24:06.891Z,65.37
2019-06-11T12:25:27.196Z,63.15
2019-06-11T12:26:06.973Z,64.10
2019-06-11T12:27:06.969Z,65.58
2019-06-11T12:28:06.971Z,64.13
2019-06-11T12:29:06.975Z,66.40
2019-06-11T12:30:11.319Z,68.19
2019-06-11T12:31:06.904Z,66.77
2019-06-11T12:32:08.537Z,64.49
2019-06-11T12:33:06.969Z,65.78
2019-06-11T12:34:06.912Z,66.04
2019-06-11T12:35:06.873Z,64.75
2019-06-11T12:36:06.975Z,66.61
2019-06-11T12:37:06.911Z,63.33
2019-06-11T12:38:06.981Z,64.70
2019-06-11T12:39:06.977Z,65.53
2019-06-11T12:40:06.921Z,65.32
2019-06-11T12:41:09.070Z,66.81
2019-06-11T12:42:06.990Z,68.58
2019-06-11T12:43:28.908Z,68.45
2019-06-11T12:44:06.989Z,66.37
2019-06-11T12:45:06.931Z,65.47
2019-06-11T12:47:06.963Z,67.49
2019-06-11T12:48:06.997Z,64.42
2019-06-11T12:49:07.189Z,65.99
2019-06-11T12:50:06.991Z,66.92
2019-06-11T12:51:12.483Z,69.02
2019-06-11T12:52:06.868Z,67.60
2019-06-11T12:53:07.613Z,66.97
2019-06-11T12:54:06.922Z,66.09
2019-06-11T12:55:07.981Z,66.27
2019-06-11T12:56:06.923Z,64.88
2019-06-11T12:57:06.988Z,65.96
2019-06-11T12:58:07.770Z,65.42
2019-06-11T12:59:07.505Z,66.33
2019-06-11T13:00:09.158Z,68.76
2019-06-11T13:01:07.414Z,70.50
2019-06-11T13:02:06.957Z,68.04